Shirahamamaru — JG4872 — position and weather

sailwx.info

Track history (hours):
 
Tides and Currents Weather Stations Pressure Air Temp Water Temp Dewpoint Dewpoint Depression Visibility Wind Speed Wind Dir Waves Ship Positions

Shirahamamaru

Last reported at 2015-Jan-26 10:33 UTC. Time now 2015-Jan-26 20:36 UTC.
Position N 35°12' E 139°46'.

Length 79 m; draft 3.2 m.

Type: Passenger vessel. MMSI: 431000239.

Date/timePositionNaut miles runAvg speedWind from/ knotsBaromVisibWave heightAir tempDewpointWater temp
2015-Jan-26 10:33N 35°12' E 139°46'2 2.1
2015-Jan-26 09:33N 35°11' E 139°48'4 3.8
2015-Jan-26 08:33N 35°13' E 139°44'5 4.8
2015-Jan-26 07:33N 35°10' E 139°49'5 5.0
2015-Jan-26 06:33N 35°13' E 139°44'1 0.7
2015-Jan-26 05:33N 35°13' E 139°43'6 5.9
2015-Jan-26 04:33N 35°10' E 139°49'2 2.2
2015-Jan-26 03:33N 35°11' E 139°47'4 3.7
2015-Jan-26 02:33N 35°13' E 139°43'5 4.6
2015-Jan-26 01:33N 35°11' E 139°48'4 4.2
2015-Jan-26 00:33N 35°13' E 139°43'2 2.4
2015-Jan-25 23:33N 35°12' E 139°46'1 1.3
2015-Jan-25 22:33N 35°13' E 139°45'2 2.1
2015-Jan-25 21:33N 35°11' E 139°47'2 2.2
2015-Jan-25 20:33N 35°10' E 139°49'3 0.3
2015-Jan-25 10:33N 35°12' E 139°46'2 2.5
2015-Jan-25 09:33N 35°11' E 139°48'4 4.3
2015-Jan-25 08:33N 35°13' E 139°44'5 5.0
2015-Jan-25 07:33N 35°10' E 139°49'5 5.1
2015-Jan-25 06:33N 35°13' E 139°44'3 3.1
2015-Jan-25 05:33N 35°12' E 139°47'2 2.2
2015-Jan-25 04:33N 35°13' E 139°45'3 3.3
2015-Jan-25 03:33N 35°11' E 139°48'4 4.2
2015-Jan-25 02:33N 35°13' E 139°44'4 4.2
2015-Jan-25 01:33N 35°11' E 139°48'4 4.3
2015-Jan-25 00:33N 35°13' E 139°43'3 2.5
2015-Jan-24 23:33N 35°12' E 139°46'1 1.4
2015-Jan-24 22:33N 35°13' E 139°45'2 2.2
2015-Jan-24 21:33N 35°12' E 139°47'2 2.2
2015-Jan-24 20:33N 35°10' E 139°49'4 0.4
2015-Jan-24 10:32N 35°12' E 139°45'2 2.3
2015-Jan-24 09:33N 35°11' E 139°48'4 4.2
2015-Jan-24 08:33N 35°13' E 139°43'5 5.4
2015-Jan-24 07:33N 35°10' E 139°49'5 5.3
2015-Jan-24 06:33N 35°13' E 139°44'3 3.3
2015-Jan-24 05:33N 35°11' E 139°47'3 2.8
2015-Jan-24 04:33N 35°13' E 139°44'4 3.8
2015-Jan-24 03:33N 35°11' E 139°48'4 4.4
2015-Jan-24 02:33N 35°13' E 139°43'4 4.4
2015-Jan-24 01:33N 35°11' E 139°48'4 4.1
2015-Jan-24 00:33N 35°13' E 139°44'2 2.4
2015-Jan-23 23:33N 35°12' E 139°46'2 1.8
2015-Jan-23 22:33N 35°13' E 139°44'3 2.6
2015-Jan-23 21:33N 35°12' E 139°47'2 2.1
2015-Jan-23 20:33N 35°10' E 139°49'0 0.0
2015-Jan-23 19:33N 35°10' E 139°49'0 0.0
2015-Jan-23 18:33N 35°10' E 139°49'0 0.0
2015-Jan-23 17:32N 35°10' E 139°49'0 0.0
2015-Jan-23 16:33N 35°10' E 139°49'0 0.0
2015-Jan-23 15:33N 35°10' E 139°49'0 0.0
2015-Jan-23 14:33N 35°10' E 139°49'0 0.0
2015-Jan-23 13:33N 35°10' E 139°49'0 0.0
2015-Jan-23 12:33N 35°10' E 139°49'0 0.0
2015-Jan-23 11:33N 35°10' E 139°49'3 3.3
2015-Jan-23 10:33N 35°12' E 139°46'2 2.2
2015-Jan-23 09:33N 35°11' E 139°48'4 4.4
2015-Jan-23 08:33N 35°13' E 139°43'5 5.4
2015-Jan-23 07:33N 35°10' E 139°49'5 5.1
2015-Jan-23 06:33N 35°13' E 139°44'1 0.7
2015-Jan-23 05:33N 35°13' E 139°43'6 5.9
2015-Jan-23 04:33N 35°10' E 139°49'2 2.2
2015-Jan-23 03:33N 35°11' E 139°47'4 3.6
2015-Jan-23 02:33N 35°13' E 139°43'5 4.8
2015-Jan-23 01:33N 35°11' E 139°48'4 4.1
2015-Jan-23 00:33N 35°13' E 139°44'2 2.2
2015-Jan-22 23:33N 35°12' E 139°46'1 1.5
2015-Jan-22 22:33N 35°13' E 139°45'2 2.4
2015-Jan-22 21:33N 35°12' E 139°47'1 0.1
2015-Jan-22 10:33N 35°12' E 139°46'2 2.1
2015-Jan-22 09:33N 35°11' E 139°48'4 3.9
2015-Jan-22 08:33N 35°13' E 139°44'5 4.9
2015-Jan-22 07:33N 35°10' E 139°49'5 5.1
2015-Jan-22 06:33N 35°13' E 139°44'1 0.7
2015-Jan-22 05:33N 35°13' E 139°43'6 5.9
2015-Jan-22 04:33N 35°10' E 139°49'2 2.2
2015-Jan-22 03:33N 35°12' E 139°47'4 3.7
2015-Jan-22 02:33N 35°13' E 139°43'5 4.8
2015-Jan-22 01:33N 35°11' E 139°48'4 4.3
2015-Jan-22 00:33N 35°13' E 139°43'2 2.5
2015-Jan-21 23:33N 35°12' E 139°46'2 2.7
2015-Jan-21 22:50N 35°11' E 139°48'112.6
2015-Jan-21 22:46N 35°11' E 139°47'211.7
2015-Jan-21 22:34N 35°13' E 139°45'3 2.5
2015-Jan-21 21:33N 35°11' E 139°47'2 2.0
2015-Jan-21 20:33N 35°10' E 139°49'3 0.3
2015-Jan-21 10:33N 35°12' E 139°46'2 2.2
2015-Jan-21 09:34N 35°11' E 139°48'4 4.2
2015-Jan-21 08:33N 35°13' E 139°44'5 5.1
2015-Jan-21 07:34N 35°10' E 139°49'5 5.1
2015-Jan-21 06:34N 35°13' E 139°44'1 0.5
2015-Jan-21 05:33N 35°13' E 139°43'6 5.9
2015-Jan-21 04:33N 35°10' E 139°49'3 2.5
2015-Jan-21 03:34N 35°12' E 139°47'3 3.4
2015-Jan-21 02:34N 35°13' E 139°43'5 4.6
2015-Jan-21 01:33N 35°11' E 139°48'4 4.2
2015-Jan-21 00:34N 35°13' E 139°44'2 2.3
2015-Jan-20 23:34N 35°12' E 139°46'1 1.3
2015-Jan-20 22:34N 35°13' E 139°45'2 2.1
2015-Jan-20 21:34N 35°11' E 139°47'2 2.2
2015-Jan-20 20:33N 35°10' E 139°49'3 0.3
2015-Jan-20 10:33N 35°12' E 139°46'2 2.1
2015-Jan-20 09:33N 35°11' E 139°48'4 4.3
2015-Jan-20 08:34N 35°13' E 139°43'5 5.3
2015-Jan-20 07:33N 35°10' E 139°49'5 5.1
2015-Jan-20 06:33N 35°13' E 139°44'1 0.6
2015-Jan-20 05:32N 35°13' E 139°43'6 5.8
2015-Jan-20 04:32N 35°10' E 139°49'3 3.1
2015-Jan-20 03:33N 35°13' E 139°47'3 3.1
2015-Jan-20 02:33N 35°13' E 139°43'5 4.9
2015-Jan-20 01:33N 35°11' E 139°48'5 4.6
2015-Jan-20 00:33N 35°13' E 139°43'3 2.6
2015-Jan-19 23:33N 35°12' E 139°46'1 1.5
2015-Jan-19 22:33N 35°13' E 139°45'2 2.4
2015-Jan-19 21:33N 35°11' E 139°47'1 0.1
2015-Jan-19 10:34N 35°12' E 139°46'2 2.4
2015-Jan-19 09:33N 35°11' E 139°48'4 4.2
2015-Jan-19 08:33N 35°13' E 139°44'5 5.2
2015-Jan-19 07:33N 35°10' E 139°49'5 5.1
2015-Jan-19 06:33N 35°13' E 139°44'1 0.7
2015-Jan-19 05:33N 35°13' E 139°43'6 5.9
2015-Jan-19 04:33N 35°10' E 139°49'2 2.3
2015-Jan-19 03:33N 35°12' E 139°47'4 3.6
2015-Jan-19 02:33N 35°13' E 139°43'5 5.1
2015-Jan-19 01:33N 35°11' E 139°48'5 4.6
2015-Jan-19 00:33N 35°13' E 139°44'2 2.4
2015-Jan-18 23:33N 35°12' E 139°46'1 1.4
2015-Jan-18 22:33N 35°13' E 139°45'2 2.2
2015-Jan-18 21:33N 35°12' E 139°47'1 0.1
2015-Jan-18 10:33N 35°12' E 139°46'2 1.8
2015-Jan-18 09:33N 35°11' E 139°48'4 4.2
2015-Jan-18 08:33N 35°13' E 139°44'5 5.3
2015-Jan-18 07:33N 35°10' E 139°49'5 5.2
2015-Jan-18 06:33N 35°13' E 139°44'3 3.4
2015-Jan-18 05:33N 35°12' E 139°47'2 2.2
2015-Jan-18 04:33N 35°13' E 139°45'3 3.1
2015-Jan-18 03:33N 35°11' E 139°48'4 4.2
2015-Jan-18 02:33N 35°13' E 139°44'4 4.1
2015-Jan-18 01:33N 35°11' E 139°48'4 4.1
2015-Jan-18 00:33N 35°13' E 139°44'2 2.3
2015-Jan-17 23:33N 35°12' E 139°46'1 1.4
2015-Jan-17 22:33N 35°13' E 139°44'2 2.5
2015-Jan-17 21:33N 35°11' E 139°47'2 2.1
2015-Jan-17 20:33N 35°10' E 139°49'3 0.3
2015-Jan-17 10:33N 35°12' E 139°46'2 2.1
2015-Jan-17 09:33N 35°11' E 139°48'4 4.5
2015-Jan-17 08:33N 35°13' E 139°43'6 5.6
2015-Jan-17 07:33N 35°10' E 139°49'5 5.4
2015-Jan-17 06:33N 35°13' E 139°44'3 3.4
2015-Jan-17 05:33N 35°11' E 139°47'3 2.5
2015-Jan-17 04:33N 35°13' E 139°44'3 3.5
2015-Jan-17 03:34N 35°11' E 139°48'4 4.5
2015-Jan-17 02:33N 35°13' E 139°43'5 4.5
2015-Jan-17 01:33N 35°11' E 139°48'4 4.4
2015-Jan-17 00:33N 35°13' E 139°44'3 2.6
2015-Jan-16 23:33N 35°12' E 139°46'1 1.5
2015-Jan-16 22:33N 35°13' E 139°45'2 2.5
2015-Jan-16 21:33N 35°11' E 139°47'2 1.9
2015-Jan-16 20:33N 35°10' E 139°49'4 0.4
2015-Jan-16 10:33N 35°13' E 139°46'  
Track history (hours):
 
Tides and Currents Weather Stations Pressure Air Temp Water Temp Dewpoint Dewpoint Depression Visibility Wind Speed Wind Dir Waves Ship Positions

Shirahamamaru

Last reported at 2015-Jan-26 10:33 UTC. Time now 2015-Jan-26 20:36 UTC.
Position N 35°12' E 139°46'.

Length 79 m; draft 3.2 m.

Type: Passenger vessel. MMSI: 431000239.

Date/timePositionNaut miles runAvg speedWind from/ knotsBaromVisibWave heightAir tempDewpointWater temp
2015-Jan-26 10:33N 35°12' E 139°46'2 2.1
2015-Jan-26 09:33N 35°11' E 139°48'4 3.8
2015-Jan-26 08:33N 35°13' E 139°44'5 4.8
2015-Jan-26 07:33N 35°10' E 139°49'5 5.0
2015-Jan-26 06:33N 35°13' E 139°44'1 0.7
2015-Jan-26 05:33N 35°13' E 139°43'6 5.9
2015-Jan-26 04:33N 35°10' E 139°49'2 2.2
2015-Jan-26 03:33N 35°11' E 139°47'4 3.7
2015-Jan-26 02:33N 35°13' E 139°43'5 4.6
2015-Jan-26 01:33N 35°11' E 139°48'4 4.2
2015-Jan-26 00:33N 35°13' E 139°43'2 2.4
2015-Jan-25 23:33N 35°12' E 139°46'1 1.3
2015-Jan-25 22:33N 35°13' E 139°45'2 2.1
2015-Jan-25 21:33N 35°11' E 139°47'2 2.2
2015-Jan-25 20:33N 35°10' E 139°49'3 0.3
2015-Jan-25 10:33N 35°12' E 139°46'2 2.5
2015-Jan-25 09:33N 35°11' E 139°48'4 4.3
2015-Jan-25 08:33N 35°13' E 139°44'5 5.0
2015-Jan-25 07:33N 35°10' E 139°49'5 5.1
2015-Jan-25 06:33N 35°13' E 139°44'3 3.1
2015-Jan-25 05:33N 35°12' E 139°47'2 2.2
2015-Jan-25 04:33N 35°13' E 139°45'3 3.3
2015-Jan-25 03:33N 35°11' E 139°48'4 4.2
2015-Jan-25 02:33N 35°13' E 139°44'4 4.2
2015-Jan-25 01:33N 35°11' E 139°48'4 4.3
2015-Jan-25 00:33N 35°13' E 139°43'3 2.5
2015-Jan-24 23:33N 35°12' E 139°46'1 1.4
2015-Jan-24 22:33N 35°13' E 139°45'2 2.2
2015-Jan-24 21:33N 35°12' E 139°47'2 2.2
2015-Jan-24 20:33N 35°10' E 139°49'4 0.4
2015-Jan-24 10:32N 35°12' E 139°45'2 2.3
2015-Jan-24 09:33N 35°11' E 139°48'4 4.2
2015-Jan-24 08:33N 35°13' E 139°43'5 5.4
2015-Jan-24 07:33N 35°10' E 139°49'5 5.3
2015-Jan-24 06:33N 35°13' E 139°44'3 3.3
2015-Jan-24 05:33N 35°11' E 139°47'3 2.8
2015-Jan-24 04:33N 35°13' E 139°44'4 3.8
2015-Jan-24 03:33N 35°11' E 139°48'4 4.4
2015-Jan-24 02:33N 35°13' E 139°43'4 4.4
2015-Jan-24 01:33N 35°11' E 139°48'4 4.1
2015-Jan-24 00:33N 35°13' E 139°44'2 2.4
2015-Jan-23 23:33N 35°12' E 139°46'2 1.8
2015-Jan-23 22:33N 35°13' E 139°44'3 2.6
2015-Jan-23 21:33N 35°12' E 139°47'2 2.1
2015-Jan-23 20:33N 35°10' E 139°49'0 0.0
2015-Jan-23 19:33N 35°10' E 139°49'0 0.0
2015-Jan-23 18:33N 35°10' E 139°49'0 0.0
2015-Jan-23 17:32N 35°10' E 139°49'0 0.0
2015-Jan-23 16:33N 35°10' E 139°49'0 0.0
2015-Jan-23 15:33N 35°10' E 139°49'0 0.0
2015-Jan-23 14:33N 35°10' E 139°49'0 0.0
2015-Jan-23 13:33N 35°10' E 139°49'0 0.0
2015-Jan-23 12:33N 35°10' E 139°49'0 0.0
2015-Jan-23 11:33N 35°10' E 139°49'3 3.3
2015-Jan-23 10:33N 35°12' E 139°46'2 2.2
2015-Jan-23 09:33N 35°11' E 139°48'4 4.4
2015-Jan-23 08:33N 35°13' E 139°43'5 5.4
2015-Jan-23 07:33N 35°10' E 139°49'5 5.1
2015-Jan-23 06:33N 35°13' E 139°44'1 0.7
2015-Jan-23 05:33N 35°13' E 139°43'6 5.9
2015-Jan-23 04:33N 35°10' E 139°49'2 2.2
2015-Jan-23 03:33N 35°11' E 139°47'4 3.6
2015-Jan-23 02:33N 35°13' E 139°43'5 4.8
2015-Jan-23 01:33N 35°11' E 139°48'4 4.1
2015-Jan-23 00:33N 35°13' E 139°44'2 2.2
2015-Jan-22 23:33N 35°12' E 139°46'1 1.5
2015-Jan-22 22:33N 35°13' E 139°45'2 2.4
2015-Jan-22 21:33N 35°12' E 139°47'1 0.1
2015-Jan-22 10:33N 35°12' E 139°46'2 2.1
2015-Jan-22 09:33N 35°11' E 139°48'4 3.9
2015-Jan-22 08:33N 35°13' E 139°44'5 4.9
2015-Jan-22 07:33N 35°10' E 139°49'5 5.1
2015-Jan-22 06:33N 35°13' E 139°44'1 0.7
2015-Jan-22 05:33N 35°13' E 139°43'6 5.9
2015-Jan-22 04:33N 35°10' E 139°49'2 2.2
2015-Jan-22 03:33N 35°12' E 139°47'4 3.7
2015-Jan-22 02:33N 35°13' E 139°43'5 4.8
2015-Jan-22 01:33N 35°11' E 139°48'4 4.3
2015-Jan-22 00:33N 35°13' E 139°43'2 2.5
2015-Jan-21 23:33N 35°12' E 139°46'2 2.7
2015-Jan-21 22:50N 35°11' E 139°48'112.6
2015-Jan-21 22:46N 35°11' E 139°47'211.7
2015-Jan-21 22:34N 35°13' E 139°45'3 2.5
2015-Jan-21 21:33N 35°11' E 139°47'2 2.0
2015-Jan-21 20:33N 35°10' E 139°49'3 0.3
2015-Jan-21 10:33N 35°12' E 139°46'2 2.2
2015-Jan-21 09:34N 35°11' E 139°48'4 4.2
2015-Jan-21 08:33N 35°13' E 139°44'5 5.1
2015-Jan-21 07:34N 35°10' E 139°49'5 5.1
2015-Jan-21 06:34N 35°13' E 139°44'1 0.5
2015-Jan-21 05:33N 35°13' E 139°43'6 5.9
2015-Jan-21 04:33N 35°10' E 139°49'3 2.5
2015-Jan-21 03:34N 35°12' E 139°47'3 3.4
2015-Jan-21 02:34N 35°13' E 139°43'5 4.6
2015-Jan-21 01:33N 35°11' E 139°48'4 4.2
2015-Jan-21 00:34N 35°13' E 139°44'2 2.3
2015-Jan-20 23:34N 35°12' E 139°46'1 1.3
2015-Jan-20 22:34N 35°13' E 139°45'2 2.1
2015-Jan-20 21:34N 35°11' E 139°47'2 2.2
2015-Jan-20 20:33N 35°10' E 139°49'3 0.3
2015-Jan-20 10:33N 35°12' E 139°46'2 2.1
2015-Jan-20 09:33N 35°11' E 139°48'4 4.3
2015-Jan-20 08:34N 35°13' E 139°43'5 5.3
2015-Jan-20 07:33N 35°10' E 139°49'5 5.1
2015-Jan-20 06:33N 35°13' E 139°44'1 0.6
2015-Jan-20 05:32N 35°13' E 139°43'6 5.8
2015-Jan-20 04:32N 35°10' E 139°49'3 3.1
2015-Jan-20 03:33N 35°13' E 139°47'3 3.1
2015-Jan-20 02:33N 35°13' E 139°43'5 4.9
2015-Jan-20 01:33N 35°11' E 139°48'5 4.6
2015-Jan-20 00:33N 35°13' E 139°43'3 2.6
2015-Jan-19 23:33N 35°12' E 139°46'1 1.5
2015-Jan-19 22:33N 35°13' E 139°45'2 2.4
2015-Jan-19 21:33N 35°11' E 139°47'1 0.1
2015-Jan-19 10:34N 35°12' E 139°46'2 2.4
2015-Jan-19 09:33N 35°11' E 139°48'4 4.2
2015-Jan-19 08:33N 35°13' E 139°44'5 5.2
2015-Jan-19 07:33N 35°10' E 139°49'5 5.1
2015-Jan-19 06:33N 35°13' E 139°44'1 0.7
2015-Jan-19 05:33N 35°13' E 139°43'6 5.9
2015-Jan-19 04:33N 35°10' E 139°49'2 2.3
2015-Jan-19 03:33N 35°12' E 139°47'4 3.6
2015-Jan-19 02:33N 35°13' E 139°43'5 5.1
2015-Jan-19 01:33N 35°11' E 139°48'5 4.6
2015-Jan-19 00:33N 35°13' E 139°44'2 2.4
2015-Jan-18 23:33N 35°12' E 139°46'1 1.4
2015-Jan-18 22:33N 35°13' E 139°45'2 2.2
2015-Jan-18 21:33N 35°12' E 139°47'1 0.1
2015-Jan-18 10:33N 35°12' E 139°46'2 1.8
2015-Jan-18 09:33N 35°11' E 139°48'4 4.2
2015-Jan-18 08:33N 35°13' E 139°44'5 5.3
2015-Jan-18 07:33N 35°10' E 139°49'5 5.2
2015-Jan-18 06:33N 35°13' E 139°44'3 3.4
2015-Jan-18 05:33N 35°12' E 139°47'2 2.2
2015-Jan-18 04:33N 35°13' E 139°45'3 3.1
2015-Jan-18 03:33N 35°11' E 139°48'4 4.2
2015-Jan-18 02:33N 35°13' E 139°44'4 4.1
2015-Jan-18 01:33N 35°11' E 139°48'4 4.1
2015-Jan-18 00:33N 35°13' E 139°44'2 2.3
2015-Jan-17 23:33N 35°12' E 139°46'1 1.4
2015-Jan-17 22:33N 35°13' E 139°44'2 2.5
2015-Jan-17 21:33N 35°11' E 139°47'2 2.1
2015-Jan-17 20:33N 35°10' E 139°49'3 0.3
2015-Jan-17 10:33N 35°12' E 139°46'2 2.1
2015-Jan-17 09:33N 35°11' E 139°48'4 4.5
2015-Jan-17 08:33N 35°13' E 139°43'6 5.6
2015-Jan-17 07:33N 35°10' E 139°49'5 5.4
2015-Jan-17 06:33N 35°13' E 139°44'3 3.4
2015-Jan-17 05:33N 35°11' E 139°47'3 2.5
2015-Jan-17 04:33N 35°13' E 139°44'3 3.5
2015-Jan-17 03:34N 35°11' E 139°48'4 4.5
2015-Jan-17 02:33N 35°13' E 139°43'5 4.5
2015-Jan-17 01:33N 35°11' E 139°48'4 4.4
2015-Jan-17 00:33N 35°13' E 139°44'3 2.6
2015-Jan-16 23:33N 35°12' E 139°46'1 1.5
2015-Jan-16 22:33N 35°13' E 139°45'2 2.5
2015-Jan-16 21:33N 35°11' E 139°47'2 1.9
2015-Jan-16 20:33N 35°10' E 139°49'4 0.4
2015-Jan-16 10:33N 35°13' E 139°46'  

Dump ship's entire track history